createdAt,value
2022-10-04T00:00:56.693Z,92
2022-10-04T00:02:03.853Z,92
2022-10-04T00:03:11.070Z,92
2022-10-04T00:04:17.467Z,92
2022-10-04T00:05:24.535Z,92
2022-10-04T00:06:31.719Z,92
2022-10-04T00:07:38.818Z,92
2022-10-04T00:08:46.151Z,92
2022-10-04T00:09:52.468Z,92
2022-10-04T00:10:59.631Z,92
2022-10-04T00:13:13.761Z,91
2022-10-04T00:14:20.973Z,91
2022-10-04T00:15:27.533Z,91
2022-10-04T00:16:34.765Z,91
2022-10-04T00:17:41.728Z,91
2022-10-04T00:18:48.862Z,91
2022-10-04T00:19:55.947Z,91
2022-10-04T00:21:02.501Z,91
2022-10-04T00:22:09.616Z,91
2022-10-04T00:23:16.784Z,91
2022-10-04T00:24:23.421Z,91
2022-10-04T00:25:30.419Z,91
2022-10-04T00:26:37.649Z,90
2022-10-04T00:27:44.579Z,90
2022-10-04T00:28:51.742Z,90
2022-10-04T00:29:58.825Z,90
2022-10-04T00:31:06.536Z,90
2022-10-04T00:33:19.646Z,89
2022-10-04T00:34:30.039Z,89
2022-10-04T00:35:33.798Z,89
2022-10-04T00:36:40.399Z,89
2022-10-04T00:37:47.501Z,89
2022-10-04T00:38:54.627Z,89
2022-10-04T00:40:01.810Z,88
2022-10-04T00:41:08.852Z,88
2022-10-04T00:42:15.489Z,88
2022-10-04T00:43:22.531Z,88
2022-10-04T00:44:29.626Z,88
2022-10-04T00:45:36.736Z,88
2022-10-04T00:46:43.857Z,88
2022-10-04T00:47:50.418Z,88
2022-10-04T00:48:57.517Z,88
2022-10-04T00:50:04.632Z,88
2022-10-04T00:51:11.739Z,88
2022-10-04T00:52:18.340Z,88
2022-10-04T00:53:25.427Z,88
2022-10-04T00:54:32.545Z,88
2022-10-04T00:55:39.672Z,88
2022-10-04T00:56:46.780Z,87
2022-10-04T00:57:53.882Z,87
2022-10-04T00:59:00.449Z,87
2022-10-04T01:00:07.602Z,87
2022-10-04T01:01:14.694Z,87
2022-10-04T01:02:21.868Z,87
2022-10-04T01:03:28.909Z,87
2022-10-04T01:04:35.426Z,87
2022-10-04T01:05:42.551Z,87
2022-10-04T01:06:49.682Z,86
2022-10-04T01:07:56.757Z,86
2022-10-04T01:09:03.367Z,86
2022-10-04T01:10:10.445Z,86
2022-10-04T01:11:17.558Z,86
2022-10-04T01:12:24.727Z,86
2022-10-04T01:14:38.350Z,86
2022-10-04T01:16:52.558Z,86
2022-10-04T01:18:05.395Z,86
2022-10-04T01:19:06.774Z,86
2022-10-04T01:20:13.324Z,86
2022-10-04T01:21:20.544Z,86
2022-10-04T01:22:27.567Z,85
2022-10-04T01:23:34.856Z,85
2022-10-04T01:24:41.772Z,85
2022-10-04T01:25:48.446Z,85
2022-10-04T01:26:55.474Z,85
2022-10-04T01:28:03.219Z,85
2022-10-04T01:29:09.747Z,85
2022-10-04T01:30:16.786Z,85
2022-10-04T01:31:23.418Z,85
2022-10-04T01:32:30.502Z,85
2022-10-04T01:33:37.615Z,85
2022-10-04T01:34:45.350Z,84
2022-10-04T01:35:51.788Z,84
2022-10-04T01:36:58.377Z,84
2022-10-04T01:38:05.452Z,84
2022-10-04T01:39:12.676Z,84
2022-10-04T01:41:26.850Z,84
2022-10-04T01:42:33.405Z,84
2022-10-04T01:43:40.514Z,84
2022-10-04T01:44:47.658Z,84
2022-10-04T01:45:54.801Z,84
2022-10-04T01:47:01.799Z,84
2022-10-04T01:49:15.487Z,85
2022-10-04T01:50:22.610Z,85
2022-10-04T01:51:29.976Z,85
2022-10-04T01:52:36.961Z,85
2022-10-04T01:53:43.416Z,85
2022-10-04T01:55:57.584Z,85
2022-10-04T01:57:04.916Z,86
2022-10-04T01:58:11.817Z,86
2022-10-04T01:59:18.462Z,86
2022-10-04T02:00:25.505Z,86
2022-10-04T02:01:32.684Z,86
2022-10-04T02:02:39.778Z,87
2022-10-04T02:03:46.895Z,87
2022-10-04T02:04:53.489Z,87
2022-10-04T02:06:00.687Z,87
2022-10-04T02:07:07.599Z,88
2022-10-04T02:08:14.794Z,88
2022-10-04T02:09:21.332Z,88
2022-10-04T02:10:28.481Z,89
2022-10-04T02:11:35.533Z,89
2022-10-04T02:12:42.681Z,89
2022-10-04T02:13:50.389Z,89
2022-10-04T02:14:56.372Z,89
2022-10-04T02:17:11.118Z,89
2022-10-04T02:18:17.745Z,89
2022-10-04T02:20:31.484Z,90
2022-10-04T02:21:38.438Z,90
2022-10-04T02:22:45.513Z,90
2022-10-04T02:23:52.650Z,90
2022-10-04T02:24:59.767Z,90
2022-10-04T02:26:06.396Z,90
2022-10-04T02:27:13.409Z,91
2022-10-04T02:28:20.919Z,91
2022-10-04T02:29:27.810Z,91
2022-10-04T02:30:34.772Z,91
2022-10-04T02:31:41.771Z,91
2022-10-04T02:32:48.455Z,91
2022-10-04T02:33:55.586Z,91
2022-10-04T02:35:02.633Z,91
2022-10-04T02:37:16.428Z,91
2022-10-04T02:38:23.984Z,91
2022-10-04T02:39:30.677Z,92
2022-10-04T02:40:37.674Z,92
2022-10-04T02:41:44.806Z,92
2022-10-04T02:42:51.439Z,92
2022-10-04T02:45:05.747Z,92
2022-10-04T02:46:12.796Z,92
2022-10-04T02:47:19.811Z,92
2022-10-04T02:48:26.382Z,93
2022-10-04T02:49:33.457Z,93
2022-10-04T02:50:40.582Z,93
2022-10-04T02:51:47.689Z,93
2022-10-04T02:52:54.797Z,93
2022-10-04T02:54:03.591Z,93
2022-10-04T02:55:08.541Z,95
2022-10-04T02:56:15.605Z,96
2022-10-04T02:57:22.669Z,97
2022-10-04T02:58:29.300Z,97
2022-10-04T02:59:36.438Z,97
2022-10-04T03:00:43.508Z,97
2022-10-04T03:01:50.706Z,97
2022-10-04T03:02:57.742Z,97
2022-10-04T03:04:04.255Z,97
2022-10-04T03:05:11.421Z,97
2022-10-04T03:06:18.690Z,97
2022-10-04T03:07:25.619Z,97
2022-10-04T03:09:39.283Z,97
2022-10-04T03:10:46.416Z,97
2022-10-04T03:11:53.471Z,97
2022-10-04T03:13:00.608Z,97
2022-10-04T03:14:07.747Z,97
2022-10-04T03:15:14.320Z,97
2022-10-04T03:16:21.570Z,97
2022-10-04T03:18:36.188Z,97
2022-10-04T03:19:42.720Z,97
2022-10-04T03:20:49.314Z,97
2022-10-04T03:21:56.500Z,97
2022-10-04T03:23:03.519Z,97
2022-10-04T03:24:10.656Z,97
2022-10-04T03:25:17.727Z,98
2022-10-04T03:26:24.336Z,98
2022-10-04T03:27:31.430Z,98
2022-10-04T03:28:38.610Z,98
2022-10-04T03:29:45.637Z,98
2022-10-04T03:30:52.704Z,98
2022-10-04T03:31:59.424Z,98
2022-10-04T03:33:06.475Z,98
2022-10-04T03:34:13.547Z,98
2022-10-04T03:35:21.710Z,98
2022-10-04T03:36:27.780Z,98
2022-10-04T03:37:34.301Z,98
2022-10-04T03:38:41.502Z,98
2022-10-04T03:39:48.554Z,98
2022-10-04T03:40:55.658Z,98
2022-10-04T03:42:03.259Z,98
2022-10-04T03:43:09.486Z,98
2022-10-04T03:44:16.452Z,98
2022-10-04T03:45:24.045Z,98
2022-10-04T03:46:30.198Z,98
2022-10-04T03:47:37.808Z,98
2022-10-04T03:48:44.379Z,98
2022-10-04T03:49:51.492Z,98
2022-10-04T03:50:58.567Z,98
2022-10-04T03:52:05.644Z,98
2022-10-04T03:53:12.303Z,98
2022-10-04T03:54:19.402Z,98
2022-10-04T03:55:26.532Z,98
2022-10-04T03:56:33.545Z,98
2022-10-04T03:57:40.665Z,98
2022-10-04T03:59:54.335Z,98
2022-10-04T04:01:01.621Z,98
2022-10-04T04:02:08.680Z,98
2022-10-04T04:03:15.646Z,98
2022-10-04T04:04:22.309Z,98
2022-10-04T04:05:29.430Z,98
2022-10-04T04:06:36.758Z,98
2022-10-04T04:07:43.546Z,98
2022-10-04T04:08:50.685Z,98
2022-10-04T04:09:57.280Z,98
2022-10-04T04:11:04.394Z,98
2022-10-04T04:12:11.617Z,98
2022-10-04T04:13:18.610Z,98
2022-10-04T04:15:32.288Z,98
2022-10-04T04:16:40.595Z,98
2022-10-04T04:17:46.540Z,98
2022-10-04T04:18:53.563Z,98
2022-10-04T04:20:04.919Z,98
2022-10-04T04:21:07.317Z,98
2022-10-04T04:22:14.408Z,98
2022-10-04T04:23:23.105Z,98
2022-10-04T04:24:28.659Z,98
2022-10-04T04:25:35.675Z,98
2022-10-04T04:27:49.437Z,98
2022-10-04T04:28:56.587Z,98
2022-10-04T04:30:03.625Z,98
2022-10-04T04:31:10.721Z,98
2022-10-04T04:32:17.346Z,98
2022-10-04T04:33:24.437Z,98
2022-10-04T04:34:31.738Z,98
2022-10-04T04:35:38.612Z,98
2022-10-04T04:37:52.345Z,99
2022-10-04T04:38:59.453Z,99
2022-10-04T04:41:13.607Z,99
2022-10-04T04:43:27.372Z,99
2022-10-04T04:44:34.419Z,99
2022-10-04T04:45:42.226Z,99
2022-10-04T04:46:48.823Z,99
2022-10-04T04:47:55.770Z,99
2022-10-04T04:49:02.372Z,99
2022-10-04T04:50:09.497Z,99
2022-10-04T04:51:16.588Z,99
2022-10-04T04:52:23.808Z,99
2022-10-04T04:53:30.809Z,99
2022-10-04T04:54:37.380Z,99
2022-10-04T04:56:02.733Z,99
2022-10-04T04:56:51.610Z,99
2022-10-04T04:57:59.249Z,99
2022-10-04T04:59:05.202Z,99
2022-10-04T05:00:12.364Z,99
2022-10-04T05:01:19.556Z,99
2022-10-04T05:02:26.649Z,99
2022-10-04T05:03:33.699Z,99
2022-10-04T05:04:40.293Z,99
2022-10-04T05:05:47.380Z,99
2022-10-04T05:06:54.530Z,99
2022-10-04T05:08:03.417Z,99
2022-10-04T05:09:08.737Z,99
2022-10-04T05:10:15.247Z,99
2022-10-04T05:11:22.397Z,99
2022-10-04T05:12:29.467Z,99
2022-10-04T05:13:37.156Z,99
2022-10-04T05:14:43.738Z,99
2022-10-04T05:15:50.286Z,99
2022-10-04T05:16:57.473Z,99
2022-10-04T05:18:04.435Z,99
2022-10-04T05:19:11.587Z,99
2022-10-04T05:20:19.308Z,99
2022-10-04T05:22:32.361Z,99
2022-10-04T05:23:39.519Z,99
2022-10-04T05:24:46.594Z,99
2022-10-04T05:25:55.037Z,99
2022-10-04T05:27:00.239Z,99
2022-10-04T05:28:07.554Z,99
2022-10-04T05:29:14.477Z,99
2022-10-04T05:30:21.654Z,99
2022-10-04T05:31:28.815Z,99
2022-10-04T05:32:35.267Z,99
2022-10-04T05:33:42.397Z,99
2022-10-04T05:34:49.555Z,99
2022-10-04T05:35:56.628Z,99
2022-10-04T05:37:03.698Z,99
2022-10-04T05:38:10.353Z,99
2022-10-04T05:39:18.450Z,99
2022-10-04T05:40:24.507Z,99
2022-10-04T05:41:33.643Z,99
2022-10-04T05:42:38.709Z,99
2022-10-04T05:43:45.331Z,99
2022-10-04T05:44:52.408Z,99
2022-10-04T05:45:59.605Z,99
2022-10-04T05:47:06.669Z,99
2022-10-04T05:48:13.753Z,99
2022-10-04T05:49:20.837Z,99
2022-10-04T05:50:27.430Z,99
2022-10-04T05:51:34.528Z,99
2022-10-04T05:52:41.710Z,99
2022-10-04T05:53:48.221Z,99
2022-10-04T05:54:55.342Z,99
2022-10-04T05:56:02.461Z,99
2022-10-04T05:57:09.596Z,99
2022-10-04T05:58:17.495Z,99
2022-10-04T05:59:23.183Z,99
2022-10-04T06:00:30.339Z,99
2022-10-04T06:01:37.627Z,99
2022-10-04T06:03:51.748Z,99
2022-10-04T06:06:05.370Z,99
2022-10-04T06:07:12.458Z,99
2022-10-04T06:08:19.564Z,99
2022-10-04T06:09:26.690Z,99
2022-10-04T06:10:33.217Z,99
2022-10-04T06:11:40.471Z,99
2022-10-04T06:13:54.548Z,99
2022-10-04T06:15:01.879Z,99
2022-10-04T06:16:08.289Z,99
2022-10-04T06:17:15.345Z,99
2022-10-04T06:18:22.411Z,99
2022-10-04T06:19:29.580Z,99
2022-10-04T06:20:37.328Z,99
2022-10-04T06:21:43.592Z,99
2022-10-04T06:22:50.313Z,99
2022-10-04T06:23:57.495Z,99
2022-10-04T06:25:04.587Z,99
2022-10-04T06:26:11.664Z,99
2022-10-04T06:27:18.332Z,99
2022-10-04T06:28:25.520Z,99
2022-10-04T06:29:32.427Z,99
2022-10-04T06:30:39.711Z,99
2022-10-04T06:31:46.924Z,99
2022-10-04T06:32:53.409Z,99
2022-10-04T06:35:07.534Z,99
2022-10-04T06:36:14.541Z,99
2022-10-04T06:37:21.692Z,99
2022-10-04T06:38:28.331Z,99
2022-10-04T06:39:35.353Z,99
2022-10-04T06:40:42.475Z,99
2022-10-04T06:41:50.120Z,99
2022-10-04T06:42:56.772Z,99
2022-10-04T06:45:10.455Z,99
2022-10-04T06:46:17.539Z,99
2022-10-04T06:47:24.619Z,99
2022-10-04T06:48:31.749Z,99
2022-10-04T06:49:38.290Z,99
2022-10-04T06:50:47.054Z,99
2022-10-04T06:51:52.500Z,99
2022-10-04T06:53:00.132Z,99
2022-10-04T06:54:06.737Z,99
2022-10-04T06:55:13.294Z,99
2022-10-04T06:56:20.419Z,99
2022-10-04T06:57:27.509Z,99
2022-10-04T06:58:34.606Z,99
2022-10-04T06:59:41.223Z,99
2022-10-04T07:00:48.374Z,99
2022-10-04T07:03:02.505Z,99
2022-10-04T07:04:09.661Z,99
2022-10-04T07:05:16.251Z,99
2022-10-04T07:06:23.318Z,99
2022-10-04T07:07:30.412Z,99
2022-10-04T07:08:37.607Z,99
2022-10-04T07:09:44.628Z,99
2022-10-04T07:10:51.264Z,99
2022-10-04T07:11:58.311Z,99
2022-10-04T07:13:05.416Z,99
2022-10-04T07:14:12.510Z,99
2022-10-04T07:15:19.678Z,99
2022-10-04T07:16:26.237Z,99
2022-10-04T07:17:33.324Z,99
2022-10-04T07:18:40.469Z,99
2022-10-04T07:19:47.640Z,99
2022-10-04T07:20:54.642Z,99
2022-10-04T07:22:01.288Z,99
2022-10-04T07:23:08.290Z,99
2022-10-04T07:24:15.427Z,99
2022-10-04T07:26:29.733Z,99
2022-10-04T07:27:36.282Z,99
2022-10-04T07:28:43.298Z,99
2022-10-04T07:30:57.679Z,99
2022-10-04T07:32:04.658Z,99
2022-10-04T07:34:18.325Z,99
2022-10-04T07:35:25.442Z,99
2022-10-04T07:36:33.891Z,99
2022-10-04T07:38:46.296Z,99
2022-10-04T07:39:53.350Z,99
2022-10-04T07:41:00.452Z,99
2022-10-04T07:42:07.631Z,99
2022-10-04T07:43:15.192Z,99
2022-10-04T07:44:21.253Z,99
2022-10-04T07:45:30.179Z,99
2022-10-04T07:46:35.460Z,99
2022-10-04T07:47:42.609Z,99
2022-10-04T07:48:49.717Z,99
2022-10-04T07:49:56.295Z,99
2022-10-04T07:51:03.380Z,99
2022-10-04T07:52:10.514Z,99
2022-10-04T07:53:17.656Z,99
2022-10-04T07:54:24.688Z,99
2022-10-04T07:55:31.307Z,99
2022-10-04T07:56:38.906Z,99
2022-10-04T07:57:45.484Z,100
2022-10-04T07:58:54.272Z,100
2022-10-04T08:00:05.457Z,100
2022-10-04T08:01:06.314Z,99
2022-10-04T08:02:13.555Z,100
2022-10-04T08:03:20.636Z,100
2022-10-04T08:04:27.642Z,100
2022-10-04T08:05:34.139Z,100
2022-10-04T08:08:55.664Z,100
2022-10-04T08:12:21.435Z,100
2022-10-04T08:13:23.587Z,100
2022-10-04T08:14:30.567Z,100
2022-10-04T08:15:37.707Z,100
2022-10-04T08:16:44.793Z,100
2022-10-04T08:17:51.311Z,99
2022-10-04T08:18:58.446Z,100
2022-10-04T08:21:12.708Z,100
2022-10-04T08:22:20.045Z,100
2022-10-04T08:23:26.357Z,100
2022-10-04T08:24:33.948Z,100
2022-10-04T08:26:47.729Z,100
2022-10-04T08:27:54.593Z,99
2022-10-04T08:29:01.652Z,99
2022-10-04T08:30:08.456Z,99
2022-10-04T08:31:15.637Z,99
2022-10-04T08:32:22.628Z,99
2022-10-04T08:33:29.570Z,99
2022-10-04T08:34:36.377Z,99
2022-10-04T08:35:43.401Z,99
2022-10-04T08:36:50.566Z,99
2022-10-04T08:37:57.667Z,99
2022-10-04T08:39:04.468Z,99
2022-10-04T08:40:13.202Z,99
2022-10-04T08:42:25.909Z,99
2022-10-04T08:43:32.629Z,99
2022-10-04T08:44:39.497Z,99
2022-10-04T08:45:46.362Z,99
2022-10-04T08:46:53.590Z,99
2022-10-04T08:48:03.627Z,99
2022-10-04T08:49:08.043Z,99
2022-10-04T08:50:14.248Z,99
2022-10-04T08:51:21.654Z,99
2022-10-04T08:52:28.781Z,99
2022-10-04T08:53:35.790Z,99
2022-10-04T08:54:42.668Z,99
2022-10-04T08:55:49.358Z,99
2022-10-04T08:56:56.383Z,99
2022-10-04T08:58:03.759Z,99
2022-10-04T08:59:10.867Z,99
2022-10-04T09:00:17.851Z,99
2022-10-04T09:02:31.744Z,99
2022-10-04T09:03:38.500Z,99
2022-10-04T09:04:46.017Z,99
2022-10-04T09:05:53.529Z,99
2022-10-04T09:06:59.307Z,99
2022-10-04T09:08:06.381Z,99
2022-10-04T09:09:13.868Z,99
2022-10-04T09:10:24.783Z,99
2022-10-04T09:11:27.537Z,99
2022-10-04T09:12:34.236Z,99
2022-10-04T09:13:41.535Z,99
2022-10-04T09:14:48.998Z,99
2022-10-04T09:15:55.608Z,99
2022-10-04T09:17:02.171Z,99
2022-10-04T09:18:09.648Z,99
2022-10-04T09:19:16.707Z,99
2022-10-04T09:20:38.236Z,99
2022-10-04T09:21:30.878Z,99
2022-10-04T09:22:37.219Z,99
2022-10-04T09:23:44.560Z,99
2022-10-04T09:24:51.667Z,99
2022-10-04T09:25:58.548Z,99
2022-10-04T09:27:05.639Z,99
2022-10-04T09:28:12.569Z,99
2022-10-04T09:29:19.455Z,99
2022-10-04T09:30:26.643Z,99
2022-10-04T09:31:33.796Z,99
2022-10-04T09:32:40.718Z,99
2022-10-04T09:33:47.507Z,99
2022-10-04T09:34:54.264Z,99
2022-10-04T09:36:01.778Z,99
2022-10-04T09:37:08.791Z,99
2022-10-04T09:38:16.557Z,99
2022-10-04T09:39:29.937Z,99
2022-10-04T09:40:29.488Z,99
2022-10-04T09:41:36.518Z,99
2022-10-04T09:42:43.843Z,99
2022-10-04T09:43:50.723Z,99
2022-10-04T09:44:57.348Z,99
2022-10-04T09:46:04.641Z,99
2022-10-04T09:47:11.977Z,99
2022-10-04T09:48:18.548Z,99
2022-10-04T09:49:25.951Z,99
2022-10-04T09:50:32.520Z,99
2022-10-04T09:51:39.350Z,99
2022-10-04T09:52:46.471Z,99
2022-10-04T09:53:53.597Z,99
2022-10-04T09:55:00.658Z,99
2022-10-04T09:56:07.337Z,98
2022-10-04T09:57:14.523Z,98
2022-10-04T09:58:21.764Z,98
2022-10-04T09:59:28.887Z,98
2022-10-04T10:00:35.610Z,98
2022-10-04T10:01:42.251Z,97
2022-10-04T10:02:49.430Z,97
2022-10-04T10:03:56.992Z,95
2022-10-04T10:05:03.576Z,94
2022-10-04T10:06:10.477Z,94
2022-10-04T10:07:17.201Z,93
2022-10-04T10:08:28.154Z,93
2022-10-04T10:10:38.624Z,93
2022-10-04T10:12:57.489Z,93
2022-10-04T10:14:04.478Z,93
2022-10-04T10:18:32.436Z,93
2022-10-04T10:19:39.738Z,92
2022-10-04T10:23:00.376Z,92
2022-10-04T10:25:14.648Z,91
2022-10-04T10:28:36.029Z,90
2022-10-04T10:31:56.627Z,89
2022-10-04T10:35:17.479Z,88
2022-10-04T10:37:31.618Z,88
2022-10-04T10:38:38.822Z,87
2022-10-04T10:39:45.391Z,87
2022-10-04T10:41:59.488Z,87
2022-10-04T10:43:06.732Z,87
2022-10-04T10:45:20.376Z,87
2022-10-04T10:47:34.492Z,87
2022-10-04T10:49:48.820Z,87
2022-10-04T10:52:02.720Z,87
2022-10-04T10:53:09.639Z,86
2022-10-04T10:55:23.269Z,86
2022-10-04T10:57:37.486Z,85
2022-10-04T11:00:58.325Z,84
2022-10-04T11:04:19.641Z,83
2022-10-04T11:05:26.709Z,83
2022-10-04T11:06:33.898Z,83
2022-10-04T11:08:47.557Z,83
2022-10-04T11:09:55.300Z,83
2022-10-04T11:14:22.520Z,83
2022-10-04T11:15:29.603Z,83
2022-10-04T11:21:04.761Z,82
2022-10-04T11:25:32.610Z,82
2022-10-04T11:27:49.439Z,81
2022-10-04T11:30:00.519Z,81
2022-10-04T11:32:28.531Z,80
2022-10-04T11:33:21.878Z,80
2022-10-04T11:35:35.658Z,80
2022-10-04T11:37:49.646Z,80
2022-10-04T11:38:56.854Z,80
2022-10-04T11:40:03.396Z,80
2022-10-04T11:42:17.622Z,80
2022-10-04T11:44:31.991Z,79
2022-10-04T11:45:38.331Z,79
2022-10-04T11:47:52.678Z,79
2022-10-04T11:50:06.793Z,79
2022-10-04T11:53:27.564Z,79
2022-10-04T11:54:34.642Z,78
2022-10-04T11:56:48.882Z,78
2022-10-04T11:59:02.644Z,78
2022-10-04T12:00:09.752Z,78
2022-10-04T12:04:37.635Z,78
2022-10-04T12:05:44.768Z,78
2022-10-04T12:10:12.587Z,78
2022-10-04T12:12:26.369Z,77
2022-10-04T12:13:33.514Z,77
2022-10-04T12:14:40.576Z,77
2022-10-04T12:16:54.690Z,77
2022-10-04T12:18:03.595Z,77
2022-10-04T12:19:08.386Z,77
2022-10-04T12:20:15.502Z,77
2022-10-04T12:22:29.684Z,77
2022-10-04T12:24:43.521Z,77
2022-10-04T12:25:50.564Z,77
2022-10-04T12:30:18.515Z,77
2022-10-04T12:31:25.735Z,77
2022-10-04T12:33:39.611Z,77
2022-10-04T12:35:53.518Z,77
2022-10-04T12:37:00.481Z,76
2022-10-04T12:38:08.670Z,76
2022-10-04T12:40:21.462Z,76
2022-10-04T12:49:17.695Z,75
2022-10-04T12:51:31.534Z,75
2022-10-04T12:53:45.551Z,74
2022-10-04T12:55:59.217Z,74
2022-10-04T12:57:10.224Z,74
2022-10-04T13:00:27.727Z,74
2022-10-04T13:02:41.354Z,75
2022-10-04T13:03:48.492Z,74
2022-10-04T13:04:55.645Z,73
2022-10-04T13:06:02.691Z,72
2022-10-04T13:07:11.342Z,72
2022-10-04T13:09:23.528Z,72
2022-10-04T13:10:30.536Z,72
2022-10-04T13:12:44.353Z,73
2022-10-04T13:18:19.300Z,72
2022-10-04T13:19:26.805Z,72
2022-10-04T13:20:33.546Z,72
2022-10-04T13:21:40.671Z,72
2022-10-04T13:25:01.489Z,71
2022-10-04T13:28:22.783Z,71
2022-10-04T13:29:29.309Z,71
2022-10-04T13:30:36.454Z,71
2022-10-04T13:35:04.345Z,71
2022-10-04T13:38:25.594Z,71
2022-10-04T13:39:32.673Z,70
2022-10-04T13:42:53.434Z,70
2022-10-04T13:44:00.582Z,70
2022-10-04T13:45:07.292Z,70
2022-10-04T13:47:21.403Z,70
2022-10-04T13:50:42.343Z,70
2022-10-04T13:52:56.503Z,70
2022-10-04T13:56:17.282Z,70
2022-10-04T14:01:52.267Z,71
2022-10-04T14:05:13.629Z,71
2022-10-04T14:06:20.618Z,71
2022-10-04T14:09:41.535Z,71
2022-10-04T14:10:48.998Z,71
2022-10-04T14:11:55.690Z,71
2022-10-04T14:13:02.150Z,71
2022-10-04T14:18:38.461Z,71
2022-10-04T14:19:44.475Z,71
2022-10-04T14:21:58.804Z,71
2022-10-04T14:23:05.581Z,71
2022-10-04T14:27:33.584Z,72
2022-10-04T14:28:40.805Z,72
2022-10-04T14:29:47.379Z,71
2022-10-04T14:33:08.542Z,71
2022-10-04T14:37:36.593Z,71
2022-10-04T14:38:43.615Z,71
2022-10-04T14:39:50.759Z,71
2022-10-04T14:40:57.444Z,71
2022-10-04T14:44:18.649Z,71
2022-10-04T14:48:46.701Z,72
2022-10-04T14:49:57.867Z,72
2022-10-04T14:52:07.295Z,71
2022-10-04T14:53:14.390Z,71
2022-10-04T14:55:42.873Z,71
2022-10-04T14:57:42.430Z,71
2022-10-04T14:59:56.665Z,71
2022-10-04T15:02:10.171Z,71
2022-10-04T15:03:17.430Z,71
2022-10-04T15:04:24.402Z,71
2022-10-04T15:05:31.513Z,71
2022-10-04T15:07:45.166Z,70
2022-10-04T15:08:52.336Z,70
2022-10-04T15:11:06.584Z,70
2022-10-04T15:15:34.471Z,70
2022-10-04T15:18:55.243Z,71
2022-10-04T15:20:02.498Z,71
2022-10-04T15:21:09.684Z,71
2022-10-04T15:23:23.745Z,71
2022-10-04T15:24:30.443Z,71
2022-10-04T15:25:37.444Z,71
2022-10-04T15:27:51.805Z,71
2022-10-04T15:30:05.300Z,71
2022-10-04T15:31:12.294Z,71
2022-10-04T15:33:26.674Z,71
2022-10-04T15:34:33.333Z,71
2022-10-04T15:35:40.543Z,71
2022-10-04T15:36:50.539Z,71
2022-10-04T15:39:01.686Z,72
2022-10-04T15:42:22.534Z,72
2022-10-04T15:43:29.543Z,72
2022-10-04T15:44:36.582Z,72
2022-10-04T15:45:43.320Z,72
2022-10-04T15:50:11.659Z,71
2022-10-04T15:51:18.674Z,70
2022-10-04T15:54:39.475Z,69
2022-10-04T15:55:46.685Z,69
2022-10-04T15:58:00.267Z,69
2022-10-04T16:01:21.688Z,69
2022-10-04T16:05:49.675Z,69
2022-10-04T16:11:24.486Z,69
2022-10-04T16:12:35.386Z,69
2022-10-04T16:14:45.460Z,69
2022-10-04T16:15:52.458Z,70
2022-10-04T16:18:08.801Z,70
2022-10-04T16:20:20.717Z,70
2022-10-04T16:21:27.402Z,70
2022-10-04T16:22:37.064Z,70
2022-10-04T16:24:48.230Z,70
2022-10-04T16:27:02.480Z,71
2022-10-04T16:28:09.494Z,71
2022-10-04T16:29:19.591Z,71
2022-10-04T16:31:30.523Z,71
2022-10-04T16:32:37.921Z,71
2022-10-04T16:34:51.652Z,71
2022-10-04T16:39:19.517Z,72
2022-10-04T16:43:47.497Z,72
2022-10-04T16:44:54.965Z,72
2022-10-04T16:48:15.396Z,72
2022-10-04T16:52:43.256Z,73
2022-10-04T16:54:57.455Z,73
2022-10-04T16:56:04.791Z,73
2022-10-04T16:58:18.225Z,73
2022-10-04T17:02:46.678Z,73
2022-10-04T17:05:00.419Z,73
2022-10-04T17:06:07.388Z,73
2022-10-04T17:09:28.256Z,73
2022-10-04T17:11:42.872Z,73
2022-10-04T17:13:56.811Z,73
2022-10-04T17:15:04.433Z,73
2022-10-04T17:19:31.151Z,74
2022-10-04T17:22:52.710Z,74
2022-10-04T17:25:06.234Z,72
2022-10-04T17:27:20.758Z,72
2022-10-04T17:28:27.595Z,72
2022-10-04T17:29:34.074Z,72
2022-10-04T17:31:48.283Z,72
2022-10-04T17:36:16.293Z,72
2022-10-04T17:39:37.524Z,72
2022-10-04T17:40:44.708Z,72
2022-10-04T17:42:58.360Z,72
2022-10-04T17:45:12.513Z,72
2022-10-04T17:46:19.721Z,72
2022-10-04T17:47:26.280Z,72
2022-10-04T17:49:40.426Z,72
2022-10-04T17:50:47.649Z,72
2022-10-04T17:51:54.748Z,72
2022-10-04T17:55:15.683Z,73
2022-10-04T17:59:43.447Z,73
2022-10-04T18:01:57.753Z,73
2022-10-04T18:05:18.372Z,74
2022-10-04T18:08:39.114Z,75
2022-10-04T18:10:53.340Z,75
2022-10-04T18:13:07.702Z,76
2022-10-04T18:16:28.688Z,76
2022-10-04T18:19:49.116Z,76
2022-10-04T18:22:03.478Z,76
2022-10-04T18:25:24.268Z,77
2022-10-04T18:29:52.851Z,77
2022-10-04T18:30:59.391Z,77
2022-10-04T18:34:20.684Z,77
2022-10-04T18:37:55.386Z,77
2022-10-04T18:39:55.871Z,77
2022-10-04T18:43:16.270Z,77
2022-10-04T18:45:30.446Z,77
2022-10-04T18:47:44.462Z,78
2022-10-04T18:48:51.504Z,78
2022-10-04T18:49:58.715Z,78
2022-10-04T18:54:26.373Z,78
2022-10-04T18:55:33.527Z,78
2022-10-04T19:00:01.457Z,78
2022-10-04T19:03:22.648Z,78
2022-10-04T19:05:36.557Z,78
2022-10-04T19:08:57.508Z,78
2022-10-04T19:10:04.375Z,78
2022-10-04T19:12:18.448Z,78
2022-10-04T19:13:28.353Z,78
2022-10-04T19:14:32.995Z,78
2022-10-04T19:19:00.517Z,78
2022-10-04T19:20:07.291Z,78
2022-10-04T19:21:14.236Z,78
2022-10-04T19:23:28.439Z,78
2022-10-04T19:24:35.643Z,78
2022-10-04T19:26:49.759Z,78
2022-10-04T19:28:03.624Z,78
2022-10-04T19:30:10.706Z,78
2022-10-04T19:32:24.302Z,78
2022-10-04T19:33:31.434Z,78
2022-10-04T19:34:38.591Z,78
2022-10-04T19:38:03.638Z,78
2022-10-04T19:45:48.620Z,78
2022-10-04T19:48:03.779Z,78
2022-10-04T19:49:09.283Z,78
2022-10-04T19:50:16.366Z,78
2022-10-04T19:56:58.681Z,78
2022-10-04T20:00:33.404Z,78
2022-10-04T20:01:26.479Z,78
2022-10-04T20:04:47.211Z,78
2022-10-04T20:10:22.583Z,79
2022-10-04T20:12:36.482Z,79
2022-10-04T20:14:50.184Z,79
2022-10-04T20:19:18.574Z,79
2022-10-04T20:20:25.107Z,79
2022-10-04T20:23:46.562Z,78
2022-10-04T20:26:00.756Z,79
2022-10-04T20:30:31.601Z,79
2022-10-04T20:32:42.407Z,79
2022-10-04T20:33:49.466Z,79
2022-10-04T20:34:56.623Z,79
2022-10-04T20:37:10.254Z,80
2022-10-04T20:39:24.513Z,80
2022-10-04T20:40:32.050Z,80
2022-10-04T20:42:45.112Z,80
2022-10-04T20:43:52.199Z,80
2022-10-04T20:47:13.672Z,80
2022-10-04T20:50:34.486Z,80
2022-10-04T20:51:41.623Z,80
2022-10-04T20:52:48.639Z,80
2022-10-04T20:57:16.638Z,80
2022-10-04T20:59:30.277Z,80
2022-10-04T21:00:37.325Z,80
2022-10-04T21:02:51.502Z,79
2022-10-04T21:03:58.555Z,79
2022-10-04T21:06:13.359Z,79
2022-10-04T21:10:40.331Z,79
2022-10-04T21:14:01.468Z,78
2022-10-04T21:16:15.274Z,78
2022-10-04T21:20:43.698Z,78
2022-10-04T21:27:25.258Z,77
2022-10-04T21:34:07.343Z,77
2022-10-04T21:37:28.124Z,77
2022-10-04T21:39:42.359Z,77
2022-10-04T21:43:03.146Z,77
2022-10-04T21:45:17.589Z,77
2022-10-04T21:47:32.065Z,78
2022-10-04T21:49:45.333Z,78
2022-10-04T21:51:59.450Z,78
2022-10-04T21:53:06.436Z,78
2022-10-04T21:54:13.098Z,78
2022-10-04T21:58:41.622Z,79
2022-10-04T21:59:48.142Z,79
2022-10-04T22:00:58.238Z,79
2022-10-04T22:04:16.509Z,79
2022-10-04T22:05:23.842Z,79
2022-10-04T22:09:51.539Z,80
2022-10-04T22:12:05.267Z,80
2022-10-04T22:13:12.581Z,80
2022-10-04T22:16:33.247Z,80
2022-10-04T22:17:40.286Z,80
2022-10-04T22:19:54.493Z,80
2022-10-04T22:22:08.217Z,80
2022-10-04T22:23:15.323Z,80
2022-10-04T22:24:22.281Z,80
2022-10-04T22:27:43.156Z,80
2022-10-04T22:31:04.522Z,80
2022-10-04T22:33:18.186Z,80
2022-10-04T22:38:53.208Z,79
2022-10-04T22:43:24.658Z,79
2022-10-04T22:45:35.419Z,79
2022-10-04T22:50:03.236Z,79
2022-10-04T22:53:29.705Z,78
2022-10-04T22:55:38.186Z,78
2022-10-04T22:56:45.664Z,78
2022-10-04T23:00:06.212Z,78
2022-10-04T23:01:13.230Z,78
2022-10-04T23:02:20.345Z,79
2022-10-04T23:03:27.360Z,79
2022-10-04T23:04:34.616Z,79
2022-10-04T23:06:48.547Z,79
2022-10-04T23:09:02.331Z,79
2022-10-04T23:12:23.390Z,79
2022-10-04T23:13:30.240Z,79
2022-10-04T23:14:37.464Z,79
2022-10-04T23:16:51.137Z,79
2022-10-04T23:17:58.148Z,79
2022-10-04T23:20:12.466Z,79
2022-10-04T23:24:40.461Z,79
2022-10-04T23:26:54.563Z,79
2022-10-04T23:29:08.246Z,79
2022-10-04T23:30:15.478Z,79
2022-10-04T23:33:36.127Z,79
2022-10-04T23:35:50.366Z,79
2022-10-04T23:39:11.148Z,79
2022-10-04T23:40:18.267Z,79
2022-10-04T23:42:32.474Z,79
2022-10-04T23:43:39.047Z,79